createdAt,value
2018-01-05T00:00:48.997Z,11.20
2018-01-05T00:01:49.015Z,8.90
2018-01-05T00:02:49.035Z,10.30
2018-01-05T00:03:49.052Z,11.70
2018-01-05T00:04:49.069Z,6.00
2018-01-05T00:05:49.086Z,9.00
2018-01-05T00:06:49.106Z,10.00
2018-01-05T00:07:49.123Z,6.80
2018-01-05T00:08:49.146Z,8.80
2018-01-05T00:09:49.160Z,10.40
2018-01-05T00:10:49.178Z,8.90
2018-01-05T00:11:49.196Z,7.20
2018-01-05T00:12:49.212Z,7.60
2018-01-05T00:13:49.231Z,7.40
2018-01-05T00:14:49.250Z,12.80
2018-01-05T00:15:49.268Z,11.00
2018-01-05T00:16:49.284Z,10.90
2018-01-05T00:17:49.302Z,10.60
2018-01-05T00:18:49.321Z,10.40
2018-01-05T00:19:49.339Z,7.40
2018-01-05T00:20:49.355Z,8.30
2018-01-05T00:21:49.375Z,12.70
2018-01-05T00:22:49.393Z,10.00
2018-01-05T00:23:49.410Z,9.00
2018-01-05T00:24:49.429Z,6.60
2018-01-05T00:25:49.446Z,12.00
2018-01-05T00:26:49.465Z,9.20
2018-01-05T00:27:49.483Z,9.10
2018-01-05T00:28:49.500Z,10.30
2018-01-05T00:29:49.517Z,10.00
2018-01-05T00:30:49.537Z,11.60
2018-01-05T00:31:49.555Z,8.80
2018-01-05T00:32:49.572Z,5.80
2018-01-05T00:33:49.589Z,8.90
2018-01-05T00:34:49.608Z,9.70
2018-01-05T00:35:49.626Z,10.90
2018-01-05T00:36:49.644Z,7.50
2018-01-05T00:37:49.663Z,10.10
2018-01-05T00:38:49.680Z,6.60
2018-01-05T00:39:49.698Z,6.40
2018-01-05T00:40:49.715Z,9.00
2018-01-05T00:41:49.733Z,7.30
2018-01-05T00:42:49.751Z,9.30
2018-01-05T00:43:49.770Z,10.60
2018-01-05T00:44:49.788Z,8.20
2018-01-05T00:45:49.807Z,9.40
2018-01-05T00:46:49.824Z,13.60
2018-01-05T00:47:49.841Z,9.00
2018-01-05T00:48:49.858Z,6.90
2018-01-05T00:49:49.877Z,12.70
2018-01-05T00:50:49.895Z,7.30
2018-01-05T00:51:49.913Z,8.30
2018-01-05T00:52:49.931Z,6.50
2018-01-05T00:53:49.949Z,9.50
2018-01-05T00:54:49.968Z,8.50
2018-01-05T00:55:49.985Z,8.40
2018-01-05T00:56:50.004Z,8.20
2018-01-05T00:57:50.022Z,10.50
2018-01-05T00:58:50.039Z,10.40
2018-01-05T00:59:50.065Z,11.50
2018-01-05T01:00:50.074Z,9.10
2018-01-05T01:01:50.094Z,10.80
2018-01-05T01:02:50.111Z,11.10
2018-01-05T01:03:50.132Z,10.00
2018-01-05T01:04:50.148Z,9.70
2018-01-05T01:05:50.166Z,9.90
2018-01-05T01:06:50.183Z,6.90
2018-01-05T01:07:50.203Z,8.20
2018-01-05T01:08:50.219Z,9.40
2018-01-05T01:09:50.237Z,7.90
2018-01-05T01:10:50.256Z,7.30
2018-01-05T01:11:50.275Z,13.10
2018-01-05T01:12:50.291Z,10.10
2018-01-05T01:13:50.310Z,8.70
2018-01-05T01:14:50.328Z,7.10
2018-01-05T01:15:50.346Z,17.90
2018-01-05T01:16:50.362Z,5.80
2018-01-05T01:17:50.381Z,8.40
2018-01-05T01:18:50.399Z,11.10
2018-01-05T01:19:50.417Z,9.60
2018-01-05T01:20:50.433Z,8.70
2018-01-05T01:21:50.453Z,7.50
2018-01-05T01:22:50.472Z,9.80
2018-01-05T01:23:50.489Z,8.50
2018-01-05T01:24:50.506Z,5.80
2018-01-05T01:25:50.524Z,11.50
2018-01-05T01:26:50.543Z,8.40
2018-01-05T01:27:50.561Z,9.90
2018-01-05T01:28:50.585Z,7.60
2018-01-05T01:29:50.595Z,8.00
2018-01-05T01:30:50.613Z,7.70
2018-01-05T01:31:50.632Z,11.90
2018-01-05T01:32:50.649Z,7.80
2018-01-05T01:33:50.668Z,10.00
2018-01-05T01:34:50.686Z,9.50
2018-01-05T01:35:50.703Z,10.20
2018-01-05T01:36:50.720Z,11.00
2018-01-05T01:37:50.738Z,10.30
2018-01-05T01:38:50.759Z,10.70
2018-01-05T01:39:50.775Z,12.00
2018-01-05T01:40:50.793Z,9.80
2018-01-05T01:41:50.811Z,8.10
2018-01-05T01:42:50.829Z,8.80
2018-01-05T01:43:50.847Z,10.60
2018-01-05T01:44:50.864Z,9.80
2018-01-05T01:45:50.882Z,11.80
2018-01-05T01:46:50.903Z,9.20
2018-01-05T01:47:50.918Z,10.20
2018-01-05T01:48:50.935Z,10.80
2018-01-05T01:49:50.954Z,12.80
2018-01-05T01:50:50.972Z,7.10
2018-01-05T01:51:50.989Z,13.80
2018-01-05T01:52:51.007Z,12.80
2018-01-05T01:53:51.024Z,13.80
2018-01-05T01:54:51.042Z,8.80
2018-01-05T01:55:51.061Z,10.80
2018-01-05T01:56:51.078Z,9.80
2018-01-05T01:57:51.095Z,7.50
2018-01-05T01:58:51.112Z,9.80
2018-01-05T01:59:51.136Z,12.60
2018-01-05T02:00:51.147Z,14.10
2018-01-05T02:01:51.167Z,10.50
2018-01-05T02:02:51.184Z,11.80
2018-01-05T02:03:51.203Z,10.60
2018-01-05T02:04:51.219Z,13.60
2018-01-05T02:05:51.238Z,13.40
2018-01-05T02:06:51.254Z,11.90
2018-01-05T02:07:51.273Z,9.70
2018-01-05T02:08:51.290Z,15.20
2018-01-05T02:09:51.309Z,10.00
2018-01-05T02:10:51.326Z,11.20
2018-01-05T02:11:51.344Z,8.10
2018-01-05T02:12:51.360Z,14.80
2018-01-05T02:13:51.378Z,10.90
2018-01-05T02:14:51.397Z,10.30
2018-01-05T02:15:51.414Z,11.30
2018-01-05T02:16:51.432Z,14.80
2018-01-05T02:17:51.450Z,16.00
2018-01-05T02:18:51.466Z,7.10
2018-01-05T02:19:51.487Z,11.20
2018-01-05T02:20:51.502Z,17.60
2018-01-05T02:21:51.519Z,9.90
2018-01-05T02:22:51.539Z,11.20
2018-01-05T02:23:51.556Z,12.40
2018-01-05T02:24:51.574Z,17.20
2018-01-05T02:25:51.592Z,10.80
2018-01-05T02:26:51.608Z,12.60
2018-01-05T02:27:51.628Z,7.80
2018-01-05T02:28:51.644Z,10.70
2018-01-05T02:29:51.662Z,11.40
2018-01-05T02:30:51.678Z,8.70
2018-01-05T02:31:51.698Z,9.60
2018-01-05T02:32:51.715Z,13.40
2018-01-05T02:33:51.734Z,12.10
2018-01-05T02:34:51.750Z,11.80
2018-01-05T02:35:51.769Z,9.20
2018-01-05T02:36:51.784Z,8.00
2018-01-05T02:37:51.804Z,11.10
2018-01-05T02:38:51.819Z,14.30
2018-01-05T02:39:51.839Z,12.10
2018-01-05T02:40:51.855Z,8.80
2018-01-05T02:41:51.875Z,8.00
2018-01-05T02:42:51.890Z,10.40
2018-01-05T02:43:51.909Z,10.50
2018-01-05T02:44:51.929Z,8.80
2018-01-05T02:45:51.944Z,10.70
2018-01-05T02:46:51.961Z,8.80
2018-01-05T02:47:51.988Z,9.20
2018-01-05T02:48:51.996Z,7.40
2018-01-05T02:49:52.014Z,6.80
2018-01-05T02:50:52.033Z,11.30
2018-01-05T02:51:52.051Z,11.80
2018-01-05T02:52:52.067Z,11.20
2018-01-05T02:53:52.083Z,8.80
2018-01-05T02:54:52.101Z,9.30
2018-01-05T02:55:52.119Z,13.20
2018-01-05T02:56:52.136Z,12.40
2018-01-05T02:57:52.159Z,10.50
2018-01-05T02:58:52.176Z,11.30
2018-01-05T02:59:52.189Z,12.20
2018-01-05T03:00:52.205Z,9.50
2018-01-05T03:01:52.226Z,11.20
2018-01-05T03:02:52.241Z,15.90
2018-01-05T03:03:52.260Z,17.20
2018-01-05T03:04:52.275Z,13.40
2018-01-05T03:05:52.294Z,14.20
2018-01-05T03:06:52.312Z,11.30
2018-01-05T03:07:52.329Z,12.40
2018-01-05T03:08:52.346Z,11.10
2018-01-05T03:09:52.363Z,12.00
2018-01-05T03:10:52.382Z,9.50
2018-01-05T03:11:52.398Z,8.90
2018-01-05T03:12:52.415Z,7.40
2018-01-05T03:13:52.435Z,12.40
2018-01-05T03:14:52.456Z,15.10
2018-01-05T03:15:52.468Z,11.10
2018-01-05T03:16:52.486Z,13.10
2018-01-05T03:17:52.510Z,14.00
2018-01-05T03:18:52.522Z,10.70
2018-01-05T03:19:52.543Z,18.30
2018-01-05T03:20:52.558Z,12.80
2018-01-05T03:21:52.575Z,10.70
2018-01-05T03:22:52.593Z,13.00
2018-01-05T03:23:52.638Z,13.50
2018-01-05T03:24:52.628Z,10.90
2018-01-05T03:25:52.644Z,14.80
2018-01-05T03:26:52.664Z,11.00
2018-01-05T03:27:52.681Z,10.20
2018-01-05T03:28:52.698Z,14.70
2018-01-05T03:29:52.715Z,9.30
2018-01-05T03:30:52.740Z,13.40
2018-01-05T03:31:52.751Z,16.10
2018-01-05T03:32:52.769Z,15.20
2018-01-05T03:33:52.786Z,12.10
2018-01-05T03:34:52.804Z,13.20
2018-01-05T03:35:52.823Z,13.60
2018-01-05T03:36:52.839Z,14.40
2018-01-05T03:37:52.858Z,13.10
2018-01-05T03:38:52.876Z,14.20
2018-01-05T03:39:52.894Z,16.30
2018-01-05T03:40:52.913Z,9.80
2018-01-05T03:41:52.930Z,13.20
2018-01-05T03:42:52.948Z,14.60
2018-01-05T03:43:52.966Z,11.60
2018-01-05T03:44:52.982Z,13.50
2018-01-05T03:45:53.001Z,17.70
2018-01-05T03:46:53.018Z,21.50
2018-01-05T03:47:53.038Z,17.40
2018-01-05T03:48:53.053Z,17.00
2018-01-05T03:49:53.073Z,14.20
2018-01-05T03:50:53.090Z,17.00
2018-01-05T03:51:53.109Z,19.50
2018-01-05T03:52:53.126Z,11.80
2018-01-05T03:53:53.144Z,17.90
2018-01-05T03:54:53.162Z,14.70
2018-01-05T03:55:53.180Z,18.30
2018-01-05T03:56:53.197Z,18.90
2018-01-05T03:57:53.215Z,16.80
2018-01-05T03:58:53.234Z,15.30
2018-01-05T03:59:53.252Z,18.10
2018-01-05T04:00:53.269Z,17.30
2018-01-05T04:01:53.287Z,14.40
2018-01-05T04:02:53.304Z,18.30
2018-01-05T04:03:53.324Z,14.40
2018-01-05T04:04:53.340Z,18.60
2018-01-05T04:05:53.359Z,23.20
2018-01-05T04:06:53.377Z,12.80
2018-01-05T04:07:53.495Z,23.30
2018-01-05T04:08:53.413Z,17.70
2018-01-05T04:09:53.430Z,12.80
2018-01-05T04:10:53.451Z,18.30
2018-01-05T04:11:53.467Z,16.20
2018-01-05T04:12:53.484Z,15.40
2018-01-05T04:13:53.502Z,20.40
2018-01-05T04:14:53.521Z,13.50
2018-01-05T04:15:53.538Z,22.60
2018-01-05T04:16:53.556Z,13.50
2018-01-05T04:17:53.576Z,18.30
2018-01-05T04:18:53.592Z,20.10
2018-01-05T04:19:53.610Z,15.10
2018-01-05T04:20:53.627Z,9.20
2018-01-05T04:21:53.647Z,14.40
2018-01-05T04:22:53.663Z,14.70
2018-01-05T04:23:53.682Z,12.10
2018-01-05T04:24:53.699Z,11.50
2018-01-05T04:25:53.718Z,11.80
2018-01-05T04:26:53.736Z,14.30
2018-01-05T04:27:53.754Z,14.40
2018-01-05T04:28:53.772Z,17.00
2018-01-05T04:29:53.789Z,15.00
2018-01-05T04:30:53.807Z,9.50
2018-01-05T04:31:53.825Z,15.60
2018-01-05T04:32:53.842Z,9.50
2018-01-05T04:33:53.862Z,13.20
2018-01-05T04:34:53.880Z,11.20
2018-01-05T04:35:53.898Z,13.10
2018-01-05T04:36:53.915Z,14.30
2018-01-05T04:37:53.933Z,12.20
2018-01-05T04:38:53.951Z,12.90
2018-01-05T04:39:53.970Z,14.80
2018-01-05T04:40:53.987Z,15.10
2018-01-05T04:41:54.008Z,20.50
2018-01-05T04:42:54.022Z,12.60
2018-01-05T04:43:54.042Z,12.50
2018-01-05T04:44:54.059Z,12.80
2018-01-05T04:45:54.076Z,13.10
2018-01-05T04:46:54.094Z,12.00
2018-01-05T04:47:54.113Z,15.00
2018-01-05T04:48:54.130Z,14.10
2018-01-05T04:49:54.152Z,14.40
2018-01-05T04:50:54.168Z,13.70
2018-01-05T04:51:54.185Z,13.60
2018-01-05T04:52:54.203Z,9.80
2018-01-05T04:53:54.220Z,14.10
2018-01-05T04:54:54.239Z,20.20
2018-01-05T04:55:54.259Z,13.20
2018-01-05T04:56:54.274Z,13.90
2018-01-05T04:57:54.293Z,17.60
2018-01-05T04:58:54.316Z,13.10
2018-01-05T04:59:54.329Z,14.60
2018-01-05T05:00:54.346Z,15.70
2018-01-05T05:01:54.365Z,14.70
2018-01-05T05:02:54.386Z,12.70
2018-01-05T05:03:54.401Z,12.10
2018-01-05T05:04:54.418Z,12.60
2018-01-05T05:05:54.435Z,12.70
2018-01-05T05:06:54.455Z,12.10
2018-01-05T05:07:54.473Z,14.60
2018-01-05T05:08:54.489Z,12.50
2018-01-05T05:09:54.508Z,15.20
2018-01-05T05:10:54.527Z,17.40
2018-01-05T05:11:54.545Z,9.30
2018-01-05T05:12:54.562Z,8.30
2018-01-05T05:13:54.582Z,8.90
2018-01-05T05:14:54.600Z,12.20
2018-01-05T05:15:54.617Z,14.20
2018-01-05T05:16:54.634Z,11.80
2018-01-05T05:17:54.653Z,15.70
2018-01-05T05:18:54.671Z,9.40
2018-01-05T05:19:54.688Z,12.10
2018-01-05T05:20:54.705Z,12.10
2018-01-05T05:21:54.724Z,15.70
2018-01-05T05:22:54.743Z,12.70
2018-01-05T05:23:54.761Z,14.40
2018-01-05T05:24:54.777Z,10.20
2018-01-05T05:25:54.797Z,14.80
2018-01-05T05:26:54.813Z,14.90
2018-01-05T05:27:54.833Z,16.40
2018-01-05T05:28:54.849Z,11.10
2018-01-05T05:29:54.868Z,15.70
2018-01-05T05:30:54.887Z,15.80
2018-01-05T05:31:54.905Z,16.80
2018-01-05T05:32:54.922Z,17.60
2018-01-05T05:33:54.940Z,18.70
2018-01-05T05:34:54.959Z,16.80
2018-01-05T05:35:54.977Z,19.60
2018-01-05T05:36:54.994Z,17.90
2018-01-05T05:37:55.012Z,12.60
2018-01-05T05:38:55.029Z,16.90
2018-01-05T05:39:55.049Z,19.10
2018-01-05T05:40:55.066Z,16.00
2018-01-05T05:41:55.085Z,19.80
2018-01-05T05:42:55.105Z,18.90
2018-01-05T05:43:55.120Z,21.10
2018-01-05T05:44:55.137Z,14.20
2018-01-05T05:45:55.155Z,20.10
2018-01-05T05:46:55.173Z,19.30
2018-01-05T05:47:55.191Z,18.80
2018-01-05T05:48:55.211Z,19.70
2018-01-05T05:49:55.227Z,23.80
2018-01-05T05:50:55.243Z,22.00
2018-01-05T05:51:55.262Z,21.40
2018-01-05T05:52:55.279Z,21.50
2018-01-05T05:53:55.297Z,24.60
2018-01-05T05:54:55.318Z,17.70
2018-01-05T05:55:55.332Z,24.50
2018-01-05T05:56:55.350Z,20.70
2018-01-05T05:57:55.367Z,17.80
2018-01-05T05:58:55.386Z,20.10
2018-01-05T05:59:55.404Z,22.80
2018-01-05T06:00:55.421Z,24.70
2018-01-05T06:01:55.438Z,17.30
2018-01-05T06:02:55.463Z,19.90
2018-01-05T06:03:55.475Z,20.80
2018-01-05T06:04:55.490Z,22.30
2018-01-05T06:05:55.511Z,21.50
2018-01-05T06:06:55.528Z,19.80
2018-01-05T06:07:55.546Z,21.10
2018-01-05T06:08:55.562Z,21.10
2018-01-05T06:09:55.580Z,19.70
2018-01-05T06:10:55.600Z,22.00
2018-01-05T06:11:55.616Z,21.00
2018-01-05T06:12:55.633Z,19.10
2018-01-05T06:13:55.651Z,24.70
2018-01-05T06:14:55.669Z,24.60
2018-01-05T06:15:55.687Z,21.80
2018-01-05T06:16:55.704Z,19.00
2018-01-05T06:17:55.721Z,20.60
2018-01-05T06:18:55.739Z,18.70
2018-01-05T06:19:55.758Z,17.00
2018-01-05T06:20:55.774Z,21.30
2018-01-05T06:21:55.791Z,28.50
2018-01-05T06:22:55.810Z,19.10
2018-01-05T06:23:55.828Z,22.90
2018-01-05T06:24:55.844Z,16.30
2018-01-05T06:25:55.863Z,23.30
2018-01-05T06:26:55.881Z,20.00
2018-01-05T06:27:55.898Z,23.10
2018-01-05T06:28:55.915Z,23.70
2018-01-05T06:29:55.934Z,18.90
2018-01-05T06:30:55.952Z,17.50
2018-01-05T06:31:55.971Z,20.90
2018-01-05T06:32:55.987Z,23.10
2018-01-05T06:33:56.008Z,18.30
2018-01-05T06:34:56.023Z,21.20
2018-01-05T06:35:56.041Z,22.80
2018-01-05T06:36:56.058Z,27.00
2018-01-05T06:37:56.075Z,17.30
2018-01-05T06:38:56.094Z,18.20
2018-01-05T06:39:56.115Z,20.60
2018-01-05T06:40:56.129Z,16.50
2018-01-05T06:41:56.147Z,11.90
2018-01-05T06:42:56.165Z,18.50
2018-01-05T06:43:56.182Z,15.10
2018-01-05T06:44:56.205Z,13.80
2018-01-05T06:45:56.218Z,19.60
2018-01-05T06:46:56.236Z,15.90
2018-01-05T06:47:56.354Z,18.00
2018-01-05T06:48:56.271Z,15.10
2018-01-05T06:49:56.289Z,15.90
2018-01-05T06:50:56.307Z,18.30
2018-01-05T06:51:56.325Z,13.60
2018-01-05T06:52:56.342Z,11.20
2018-01-05T06:53:56.360Z,12.20
2018-01-05T06:54:56.377Z,16.70
2018-01-05T06:55:56.398Z,11.80
2018-01-05T06:56:56.412Z,12.00
2018-01-05T06:57:56.430Z,16.10
2018-01-05T06:58:56.449Z,12.00
2018-01-05T06:59:56.468Z,11.20
2018-01-05T07:00:56.485Z,12.60
2018-01-05T07:01:56.502Z,14.10
2018-01-05T07:02:56.521Z,15.80
2018-01-05T07:03:56.539Z,18.40
2018-01-05T07:04:56.556Z,10.90
2018-01-05T07:05:56.573Z,12.90
2018-01-05T07:06:56.596Z,14.30
2018-01-05T07:07:56.611Z,19.90
2018-01-05T07:08:56.628Z,17.40
2018-01-05T07:09:56.646Z,14.20
2018-01-05T07:10:56.664Z,16.30
2018-01-05T07:11:56.682Z,15.70
2018-01-05T07:12:56.700Z,14.00
2018-01-05T07:13:56.716Z,16.10
2018-01-05T07:14:56.734Z,17.30
2018-01-05T07:15:56.752Z,14.40
2018-01-05T07:16:56.770Z,14.90
2018-01-05T07:17:56.789Z,13.40
2018-01-05T07:18:56.805Z,13.80
2018-01-05T07:19:56.824Z,13.90
2018-01-05T07:20:56.840Z,11.60
2018-01-05T07:21:56.859Z,11.40
2018-01-05T07:22:56.876Z,12.40
2018-01-05T07:23:56.895Z,11.00
2018-01-05T07:24:56.911Z,10.40
2018-01-05T07:25:56.932Z,10.00
2018-01-05T07:26:56.946Z,8.60
2018-01-05T07:27:56.964Z,10.40
2018-01-05T07:28:56.982Z,7.10
2018-01-05T07:29:57.000Z,8.70
2018-01-05T07:30:57.017Z,9.80
2018-01-05T07:31:57.036Z,6.20
2018-01-05T07:32:57.052Z,6.10
2018-01-05T07:33:57.070Z,8.00
2018-01-05T07:34:57.091Z,7.80
2018-01-05T07:35:57.106Z,7.20
2018-01-05T07:36:57.123Z,8.80
2018-01-05T07:37:57.141Z,5.10
2018-01-05T07:38:57.158Z,10.60
2018-01-05T07:39:57.174Z,7.80
2018-01-05T07:40:57.191Z,5.90
2018-01-05T07:41:57.209Z,7.70
2018-01-05T07:42:57.228Z,6.70
2018-01-05T07:43:57.247Z,7.10
2018-01-05T07:44:57.262Z,4.80
2018-01-05T07:45:57.280Z,5.60
2018-01-05T07:46:57.299Z,8.30
2018-01-05T07:47:57.315Z,6.80
2018-01-05T07:48:57.332Z,6.30
2018-01-05T07:49:57.356Z,7.90
2018-01-05T07:50:57.369Z,6.90
2018-01-05T07:51:57.387Z,7.00
2018-01-05T07:52:57.403Z,5.20
2018-01-05T07:53:57.421Z,7.00
2018-01-05T07:54:57.439Z,5.70
2018-01-05T07:55:57.455Z,7.60
2018-01-05T07:56:57.473Z,7.60
2018-01-05T07:57:57.490Z,8.50
2018-01-05T07:58:57.510Z,7.30
2018-01-05T07:59:57.531Z,4.60
2018-01-05T08:00:57.543Z,5.90
2018-01-05T08:01:57.561Z,5.80
2018-01-05T08:02:57.584Z,11.30
2018-01-05T08:03:57.596Z,15.80
2018-01-05T08:04:57.612Z,10.70
2018-01-05T08:05:57.630Z,9.20
2018-01-05T08:06:57.648Z,7.20
2018-01-05T08:07:57.665Z,9.40
2018-01-05T08:08:57.683Z,7.60
2018-01-05T08:09:57.700Z,8.10
2018-01-05T08:10:57.718Z,5.40
2018-01-05T08:11:57.736Z,6.80
2018-01-05T08:12:57.752Z,7.00
2018-01-05T08:13:57.769Z,6.70
2018-01-05T08:14:57.789Z,5.40
2018-01-05T08:15:57.805Z,5.90
2018-01-05T08:16:57.823Z,6.20
2018-01-05T08:17:57.839Z,6.00
2018-01-05T08:18:57.856Z,5.50
2018-01-05T08:19:57.873Z,4.90
2018-01-05T08:20:57.901Z,4.80
2018-01-05T08:21:57.908Z,6.00
2018-01-05T08:22:57.926Z,6.60
2018-01-05T08:23:57.944Z,6.80
2018-01-05T08:24:57.960Z,5.40
2018-01-05T08:25:58.178Z,7.50
2018-01-05T08:26:58.000Z,8.20
2018-01-05T08:27:58.013Z,6.50
2018-01-05T08:28:58.031Z,5.90
2018-01-05T08:29:58.047Z,6.10
2018-01-05T08:30:58.065Z,5.50
2018-01-05T08:31:58.083Z,5.70
2018-01-05T08:32:58.099Z,5.60
2018-01-05T08:33:58.117Z,6.80
2018-01-05T08:34:58.134Z,7.00
2018-01-05T08:35:58.152Z,7.40
2018-01-05T08:36:58.168Z,6.60
2018-01-05T08:37:58.185Z,9.70
2018-01-05T08:38:58.203Z,8.40
2018-01-05T08:39:58.221Z,7.00
2018-01-05T08:40:58.238Z,8.80
2018-01-05T08:41:58.256Z,6.80
2018-01-05T08:42:58.273Z,6.00
2018-01-05T08:43:58.291Z,8.80
2018-01-05T08:44:58.307Z,7.10
2018-01-05T08:45:58.324Z,7.40
2018-01-05T08:46:58.343Z,7.30
2018-01-05T08:47:58.362Z,8.40
2018-01-05T08:48:58.379Z,5.10
2018-01-05T08:49:58.395Z,6.80
2018-01-05T08:50:58.413Z,7.30
2018-01-05T08:51:58.439Z,6.30
2018-01-05T08:52:58.445Z,6.50
2018-01-05T08:53:58.464Z,7.30
2018-01-05T08:54:58.484Z,8.40
2018-01-05T08:55:58.500Z,7.90
2018-01-05T08:56:58.518Z,7.20
2018-01-05T08:57:58.534Z,6.60
2018-01-05T08:58:58.557Z,6.60
2018-01-05T08:59:58.568Z,5.90
2018-01-05T09:00:58.586Z,5.60
2018-01-05T09:01:58.604Z,9.00
2018-01-05T09:02:58.624Z,7.00
2018-01-05T09:03:58.640Z,6.00
2018-01-05T09:04:58.656Z,6.30
2018-01-05T09:05:58.674Z,7.40
2018-01-05T09:06:58.692Z,7.80
2018-01-05T09:07:58.710Z,5.90
2018-01-05T09:08:58.728Z,6.60
2018-01-05T09:09:58.744Z,6.40
2018-01-05T09:10:58.762Z,7.00
2018-01-05T09:11:58.780Z,5.20
2018-01-05T09:12:58.801Z,7.10
2018-01-05T09:13:58.814Z,6.90
2018-01-05T09:14:58.833Z,6.20
2018-01-05T09:15:58.851Z,7.60
2018-01-05T09:16:58.867Z,6.00
2018-01-05T09:17:58.885Z,6.00
2018-01-05T09:18:58.904Z,6.50
2018-01-05T09:19:58.922Z,5.70
2018-01-05T09:20:58.939Z,7.80
2018-01-05T09:21:58.959Z,5.00
2018-01-05T09:22:58.974Z,6.90
2018-01-05T09:23:58.993Z,5.70
2018-01-05T09:24:59.010Z,7.20
2018-01-05T09:25:59.028Z,6.40
2018-01-05T09:26:59.045Z,6.00
2018-01-05T09:27:59.062Z,6.60
2018-01-05T09:28:59.082Z,6.30
2018-01-05T09:29:59.100Z,5.60
2018-01-05T09:30:59.117Z,7.10
2018-01-05T09:31:59.135Z,5.20
2018-01-05T09:32:59.152Z,7.90
2018-01-05T09:33:59.171Z,6.50
2018-01-05T09:34:59.240Z,4.80
2018-01-05T09:35:59.207Z,7.40
2018-01-05T09:36:59.225Z,4.30
2018-01-05T09:37:59.242Z,5.00
2018-01-05T09:38:59.261Z,8.90
2018-01-05T09:39:59.280Z,7.50
2018-01-05T09:40:59.295Z,5.20
2018-01-05T09:41:59.313Z,7.20
2018-01-05T09:42:59.332Z,6.00
2018-01-05T09:43:59.350Z,7.80
2018-01-05T09:44:59.368Z,6.30
2018-01-05T09:45:59.387Z,4.40
2018-01-05T09:46:59.405Z,5.00
2018-01-05T09:47:59.423Z,6.20
2018-01-05T09:48:59.443Z,5.40
2018-01-05T09:49:59.462Z,6.50
2018-01-05T09:50:59.476Z,7.90
2018-01-05T09:51:59.496Z,8.20
2018-01-05T09:52:59.510Z,5.90
2018-01-05T09:53:59.529Z,4.50
2018-01-05T09:54:59.549Z,6.90
2018-01-05T09:55:59.567Z,4.10
2018-01-05T09:56:59.584Z,5.30
2018-01-05T09:57:59.603Z,6.60
2018-01-05T09:58:59.621Z,5.50
2018-01-05T09:59:59.638Z,5.70
2018-01-05T10:00:59.656Z,5.20
2018-01-05T10:01:59.679Z,6.30
2018-01-05T10:02:59.692Z,5.90
2018-01-05T10:03:59.712Z,5.00
2018-01-05T10:04:59.727Z,4.80
2018-01-05T10:05:59.747Z,6.00
2018-01-05T10:06:59.765Z,5.50
2018-01-05T10:07:59.782Z,7.00
2018-01-05T10:08:59.801Z,7.80
2018-01-05T10:09:59.819Z,5.70
2018-01-05T10:10:59.838Z,8.20
2018-01-05T10:11:59.855Z,6.00
2018-01-05T10:12:59.873Z,4.30
2018-01-05T10:13:59.892Z,9.40
2018-01-05T10:14:59.913Z,5.80
2018-01-05T10:15:59.929Z,6.50
2018-01-05T10:16:59.949Z,5.60
2018-01-05T10:17:59.965Z,7.10
2018-01-05T10:18:59.980Z,7.90
2018-01-05T10:20:00.000Z,7.50
2018-01-05T10:21:00.046Z,10.20
2018-01-05T10:22:00.048Z,9.20
2018-01-05T10:23:00.065Z,6.40
2018-01-05T10:24:00.074Z,5.80
2018-01-05T10:25:00.102Z,7.00
2018-01-05T10:26:00.108Z,7.30
2018-01-05T10:27:00.127Z,7.90
2018-01-05T10:28:00.146Z,9.10
2018-01-05T10:29:00.172Z,8.70
2018-01-05T10:30:00.184Z,7.30
2018-01-05T10:31:00.198Z,6.90
2018-01-05T10:32:00.220Z,6.40
2018-01-05T10:33:00.236Z,8.40
2018-01-05T10:34:00.257Z,20.20
2018-01-05T10:35:00.273Z,10.20
2018-01-05T10:36:00.292Z,9.20
2018-01-05T10:37:00.308Z,7.90
2018-01-05T10:38:00.327Z,8.10
2018-01-05T10:39:00.345Z,9.20
2018-01-05T10:40:00.365Z,10.10
2018-01-05T10:41:00.383Z,9.80
2018-01-05T10:42:00.402Z,8.60
2018-01-05T10:43:00.420Z,9.10
2018-01-05T10:44:00.437Z,26.80
2018-01-05T10:45:00.456Z,8.90
2018-01-05T10:46:00.474Z,9.30
2018-01-05T10:47:00.494Z,15.00
2018-01-05T10:48:00.512Z,14.70
2018-01-05T10:49:00.529Z,12.30
2018-01-05T10:50:00.547Z,16.50
2018-01-05T10:51:00.570Z,10.50
2018-01-05T10:52:00.585Z,12.80
2018-01-05T10:53:00.602Z,10.60
2018-01-05T10:54:00.658Z,11.90
2018-01-05T10:55:00.641Z,14.90
2018-01-05T10:56:00.662Z,9.30
2018-01-05T10:57:00.677Z,11.50
2018-01-05T10:58:00.696Z,12.40
2018-01-05T10:59:00.716Z,10.00
2018-01-05T11:00:00.735Z,9.00
2018-01-05T11:01:00.753Z,10.80
2018-01-05T11:02:00.770Z,12.90
2018-01-05T11:03:00.791Z,13.10
2018-01-05T11:04:00.809Z,10.30
2018-01-05T11:05:00.828Z,9.50
2018-01-05T11:06:00.845Z,11.20
2018-01-05T11:07:00.865Z,15.30
2018-01-05T11:08:00.884Z,12.20
2018-01-05T11:09:01.003Z,11.00
2018-01-05T11:10:00.922Z,10.20
2018-01-05T11:11:00.941Z,11.10
2018-01-05T11:12:00.960Z,13.40
2018-01-05T11:13:00.978Z,10.30
2018-01-05T11:14:00.997Z,10.00
2018-01-05T11:15:01.016Z,11.80
2018-01-05T11:16:01.036Z,10.20
2018-01-05T11:17:01.053Z,10.10
2018-01-05T11:18:01.072Z,9.50
2018-01-05T11:19:01.092Z,12.70
2018-01-05T11:20:01.111Z,10.20
2018-01-05T11:21:01.129Z,10.50
2018-01-05T11:22:01.148Z,15.60
2018-01-05T11:23:01.166Z,14.50
2018-01-05T11:24:01.187Z,13.90
2018-01-05T11:25:01.205Z,9.80
2018-01-05T11:26:01.224Z,10.70
2018-01-05T11:27:01.243Z,10.70
2018-01-05T11:28:01.262Z,11.50
2018-01-05T11:29:01.279Z,13.60
2018-01-05T11:30:01.299Z,10.80
2018-01-05T11:31:01.318Z,10.50
2018-01-05T11:32:01.338Z,12.30
2018-01-05T11:33:01.375Z,10.70
2018-01-05T11:34:01.375Z,10.30
2018-01-05T11:35:01.395Z,9.50
2018-01-05T11:36:01.413Z,11.00
2018-01-05T11:37:01.431Z,13.60
2018-01-05T11:38:01.450Z,15.30
2018-01-05T11:39:01.470Z,11.20
2018-01-05T11:40:01.489Z,13.10
2018-01-05T11:41:01.507Z,10.30
2018-01-05T11:42:01.527Z,15.20
2018-01-05T11:43:01.545Z,8.10
2018-01-05T11:44:01.571Z,7.60
2018-01-05T11:45:01.582Z,8.80
2018-01-05T11:46:01.602Z,10.60
2018-01-05T11:47:01.620Z,12.50
2018-01-05T11:48:01.640Z,15.80
2018-01-05T11:49:01.659Z,9.90
2018-01-05T11:50:01.678Z,13.80
2018-01-05T11:51:01.697Z,9.90
2018-01-05T11:52:01.716Z,9.60
2018-01-05T11:53:01.733Z,10.60
2018-01-05T11:54:01.752Z,11.10
2018-01-05T11:55:01.773Z,12.70
2018-01-05T11:56:01.792Z,11.10
2018-01-05T11:57:01.810Z,13.50
2018-01-05T11:58:01.829Z,10.30
2018-01-05T11:59:01.849Z,10.70
2018-01-05T12:00:01.869Z,15.40
2018-01-05T12:01:01.887Z,14.10
2018-01-05T12:02:01.958Z,18.00
2018-01-05T12:03:01.927Z,12.80
2018-01-05T12:04:01.944Z,15.00
2018-01-05T12:05:01.964Z,13.50
2018-01-05T12:06:01.984Z,15.20
2018-01-05T12:07:02.000Z,17.60
2018-01-05T12:08:02.021Z,16.30
2018-01-05T12:09:02.038Z,13.50
2018-01-05T12:10:02.058Z,13.70
2018-01-05T12:11:02.076Z,15.60
2018-01-05T12:12:02.095Z,12.90
2018-01-05T12:13:02.115Z,15.90
2018-01-05T12:14:02.134Z,14.50
2018-01-05T12:15:02.153Z,13.70
2018-01-05T12:16:02.173Z,20.00
2018-01-05T12:17:02.191Z,21.90
2018-01-05T12:18:02.210Z,14.00
2018-01-05T12:19:02.229Z,15.30
2018-01-05T12:20:02.251Z,15.90
2018-01-05T12:21:02.267Z,14.80
2018-01-05T12:22:02.289Z,19.20
2018-01-05T12:23:02.307Z,17.30
2018-01-05T12:24:02.325Z,17.30
2018-01-05T12:25:02.345Z,11.50
2018-01-05T12:26:02.367Z,14.60
2018-01-05T12:27:02.383Z,15.70
2018-01-05T12:28:02.402Z,20.10
2018-01-05T12:29:02.420Z,13.90
2018-01-05T12:30:02.442Z,13.80
2018-01-05T12:31:02.459Z,21.00
2018-01-05T12:32:02.578Z,16.10
2018-01-05T12:33:02.496Z,12.20
2018-01-05T12:34:02.515Z,24.80
2018-01-05T12:35:02.536Z,16.00
2018-01-05T12:36:02.556Z,14.10
2018-01-05T12:37:02.573Z,17.20
2018-01-05T12:38:02.591Z,16.20
2018-01-05T12:39:02.618Z,9.30
2018-01-05T12:40:02.633Z,15.90
2018-01-05T12:41:02.650Z,16.40
2018-01-05T12:42:02.669Z,14.70
2018-01-05T12:43:02.689Z,14.90
2018-01-05T12:44:02.711Z,15.80
2018-01-05T12:45:02.726Z,17.20
2018-01-05T12:46:02.746Z,18.60
2018-01-05T12:47:02.766Z,16.60
2018-01-05T12:48:02.784Z,17.90
2018-01-05T12:49:02.804Z,14.70
2018-01-05T12:50:02.824Z,18.50
2018-01-05T12:51:02.843Z,12.80
2018-01-05T12:52:02.862Z,17.20
2018-01-05T12:53:02.882Z,16.00
2018-01-05T12:54:02.900Z,15.90
2018-01-05T12:55:02.920Z,16.20
2018-01-05T12:56:02.940Z,15.50
2018-01-05T12:57:02.957Z,15.70
2018-01-05T12:58:02.977Z,18.90
2018-01-05T12:59:02.997Z,14.00
2018-01-05T13:00:03.015Z,11.90
2018-01-05T13:01:03.034Z,17.20
2018-01-05T13:02:03.053Z,14.00
2018-01-05T13:03:03.073Z,16.30